sensor_id;sensor_type;location;lat;lon;timestamp;P1;durP1;ratioP1;P2;durP2;ratioP2
30335;SDS011;17142;47.990;7.846;2023-02-28T00:01:03;4.20;;;3.40;;
30335;SDS011;17142;47.990;7.846;2023-02-28T00:03:29;3.27;;;3.07;;
30335;SDS011;17142;47.990;7.846;2023-02-28T00:05:55;3.37;;;2.90;;
30335;SDS011;17142;47.990;7.846;2023-02-28T00:08:21;3.30;;;2.40;;
30335;SDS011;17142;47.990;7.846;2023-02-28T00:10:47;4.60;;;3.40;;
30335;SDS011;17142;47.990;7.846;2023-02-28T00:13:12;5.57;;;3.57;;
30335;SDS011;17142;47.990;7.846;2023-02-28T00:15:38;3.73;;;2.70;;
30335;SDS011;17142;47.990;7.846;2023-02-28T00:18:03;5.40;;;2.90;;
30335;SDS011;17142;47.990;7.846;2023-02-28T00:20:29;3.23;;;2.87;;
30335;SDS011;17142;47.990;7.846;2023-02-28T00:22:55;4.20;;;2.87;;
30335;SDS011;17142;47.990;7.846;2023-02-28T00:25:22;4.03;;;3.40;;
30335;SDS011;17142;47.990;7.846;2023-02-28T00:27:50;3.53;;;2.97;;
30335;SDS011;17142;47.990;7.846;2023-02-28T00:30:17;4.20;;;3.87;;
30335;SDS011;17142;47.990;7.846;2023-02-28T00:32:47;6.70;;;3.10;;
30335;SDS011;17142;47.990;7.846;2023-02-28T00:35:13;3.43;;;3.07;;
30335;SDS011;17142;47.990;7.846;2023-02-28T00:37:39;4.40;;;3.30;;
30335;SDS011;17142;47.990;7.846;2023-02-28T00:40:05;5.33;;;2.70;;
30335;SDS011;17142;47.990;7.846;2023-02-28T00:42:34;4.53;;;3.17;;
30335;SDS011;17142;47.990;7.846;2023-02-28T00:45:00;3.03;;;2.67;;
30335;SDS011;17142;47.990;7.846;2023-02-28T00:47:29;4.90;;;3.40;;
30335;SDS011;17142;47.990;7.846;2023-02-28T00:49:58;3.50;;;3.20;;
30335;SDS011;17142;47.990;7.846;2023-02-28T00:52:23;3.10;;;2.80;;
30335;SDS011;17142;47.990;7.846;2023-02-28T00:54:49;3.63;;;2.63;;
30335;SDS011;17142;47.990;7.846;2023-02-28T00:57:15;3.47;;;3.17;;
30335;SDS011;17142;47.990;7.846;2023-02-28T00:59:40;5.77;;;3.07;;
30335;SDS011;17142;47.990;7.846;2023-02-28T01:02:06;5.20;;;3.77;;
30335;SDS011;17142;47.990;7.846;2023-02-28T01:04:32;4.17;;;2.77;;
30335;SDS011;17142;47.990;7.846;2023-02-28T01:07:00;4.20;;;3.07;;
30335;SDS011;17142;47.990;7.846;2023-02-28T01:09:25;5.93;;;3.77;;
30335;SDS011;17142;47.990;7.846;2023-02-28T01:11:51;4.37;;;3.27;;
30335;SDS011;17142;47.990;7.846;2023-02-28T01:14:17;4.00;;;3.70;;
30335;SDS011;17142;47.990;7.846;2023-02-28T01:16:45;4.07;;;3.77;;
30335;SDS011;17142;47.990;7.846;2023-02-28T01:19:11;4.13;;;3.07;;
30335;SDS011;17142;47.990;7.846;2023-02-28T01:21:36;2.80;;;2.63;;
30335;SDS011;17142;47.990;7.846;2023-02-28T01:24:02;4.37;;;3.97;;
30335;SDS011;17142;47.990;7.846;2023-02-28T01:26:29;4.40;;;3.60;;
30335;SDS011;17142;47.990;7.846;2023-02-28T01:28:55;3.53;;;3.00;;
30335;SDS011;17142;47.990;7.846;2023-02-28T01:31:21;6.77;;;3.00;;
30335;SDS011;17142;47.990;7.846;2023-02-28T01:33:47;3.70;;;3.30;;
30335;SDS011;17142;47.990;7.846;2023-02-28T01:36:19;3.87;;;3.30;;
30335;SDS011;17142;47.990;7.846;2023-02-28T01:38:47;6.73;;;3.20;;
30335;SDS011;17142;47.990;7.846;2023-02-28T01:41:15;4.93;;;3.93;;
30335;SDS011;17142;47.990;7.846;2023-02-28T01:46:11;4.87;;;3.60;;
30335;SDS011;17142;47.990;7.846;2023-02-28T01:48:44;4.70;;;3.50;;
30335;SDS011;17142;47.990;7.846;2023-02-28T01:51:27;5.67;;;3.30;;
30335;SDS011;17142;47.990;7.846;2023-02-28T01:53:58;4.03;;;3.33;;
30335;SDS011;17142;47.990;7.846;2023-02-28T01:56:28;5.03;;;4.60;;
30335;SDS011;17142;47.990;7.846;2023-02-28T01:58:57;5.73;;;3.57;;
30335;SDS011;17142;47.990;7.846;2023-02-28T02:01:24;3.33;;;3.03;;
30335;SDS011;17142;47.990;7.846;2023-02-28T02:03:55;3.70;;;3.40;;
30335;SDS011;17142;47.990;7.846;2023-02-28T02:06:27;4.30;;;4.00;;
30335;SDS011;17142;47.990;7.846;2023-02-28T02:09:02;4.60;;;3.47;;
30335;SDS011;17142;47.990;7.846;2023-02-28T02:11:31;4.00;;;3.60;;
30335;SDS011;17142;47.990;7.846;2023-02-28T02:16:44;3.63;;;3.30;;
30335;SDS011;17142;47.990;7.846;2023-02-28T02:19:46;3.40;;;3.00;;
30335;SDS011;17142;47.990;7.846;2023-02-28T02:42:29;3.87;;;3.40;;
30335;SDS011;17142;47.990;7.846;2023-02-28T02:45:23;4.40;;;3.33;;
30335;SDS011;17142;47.990;7.846;2023-02-28T02:47:53;7.37;;;3.50;;
30335;SDS011;17142;47.990;7.846;2023-02-28T02:50:29;3.93;;;3.00;;
30335;SDS011;17142;47.990;7.846;2023-02-28T02:53:00;4.20;;;3.50;;
30335;SDS011;17142;47.990;7.846;2023-02-28T02:55:27;3.50;;;3.13;;
30335;SDS011;17142;47.990;7.846;2023-02-28T02:57:58;3.50;;;3.20;;
30335;SDS011;17142;47.990;7.846;2023-02-28T03:00:33;4.07;;;3.37;;
30335;SDS011;17142;47.990;7.846;2023-02-28T03:03:02;5.30;;;3.90;;
30335;SDS011;17142;47.990;7.846;2023-02-28T03:05:35;3.97;;;3.63;;
30335;SDS011;17142;47.990;7.846;2023-02-28T03:08:13;7.33;;;3.23;;
30335;SDS011;17142;47.990;7.846;2023-02-28T03:10:41;3.37;;;2.90;;
30335;SDS011;17142;47.990;7.846;2023-02-28T03:13:14;5.30;;;2.87;;
30335;SDS011;17142;47.990;7.846;2023-02-28T03:21:33;3.53;;;3.23;;
30335;SDS011;17142;47.990;7.846;2023-02-28T03:26:32;4.90;;;3.20;;
30335;SDS011;17142;47.990;7.846;2023-02-28T03:31:42;4.40;;;3.13;;
30335;SDS011;17142;47.990;7.846;2023-02-28T03:34:19;5.27;;;3.27;;
30335;SDS011;17142;47.990;7.846;2023-02-28T03:36:53;3.67;;;3.37;;
30335;SDS011;17142;47.990;7.846;2023-02-28T03:39:31;3.33;;;3.03;;
30335;SDS011;17142;47.990;7.846;2023-02-28T03:42:08;4.00;;;3.13;;
30335;SDS011;17142;47.990;7.846;2023-02-28T03:44:39;3.00;;;2.70;;
30335;SDS011;17142;47.990;7.846;2023-02-28T03:47:16;4.40;;;3.50;;
30335;SDS011;17142;47.990;7.846;2023-02-28T03:50:06;3.80;;;3.33;;
30335;SDS011;17142;47.990;7.846;2023-02-28T03:52:34;3.40;;;3.10;;
30335;SDS011;17142;47.990;7.846;2023-02-28T03:55:08;3.30;;;2.93;;
30335;SDS011;17142;47.990;7.846;2023-02-28T03:57:43;4.93;;;3.80;;
30335;SDS011;17142;47.990;7.846;2023-02-28T04:00:25;4.17;;;3.33;;
30335;SDS011;17142;47.990;7.846;2023-02-28T04:02:56;3.57;;;3.17;;
30335;SDS011;17142;47.990;7.846;2023-02-28T04:05:22;3.43;;;3.13;;
30335;SDS011;17142;47.990;7.846;2023-02-28T04:07:48;5.90;;;3.63;;
30335;SDS011;17142;47.990;7.846;2023-02-28T04:10:14;3.30;;;3.00;;
30335;SDS011;17142;47.990;7.846;2023-02-28T04:12:41;3.90;;;3.57;;
30335;SDS011;17142;47.990;7.846;2023-02-28T04:15:09;3.33;;;3.03;;
30335;SDS011;17142;47.990;7.846;2023-02-28T04:17:36;3.93;;;3.53;;
30335;SDS011;17142;47.990;7.846;2023-02-28T04:20:02;4.20;;;3.00;;
30335;SDS011;17142;47.990;7.846;2023-02-28T04:22:34;4.53;;;3.40;;
30335;SDS011;17142;47.990;7.846;2023-02-28T04:25:00;3.10;;;2.90;;
30335;SDS011;17142;47.990;7.846;2023-02-28T04:27:26;3.40;;;3.10;;
30335;SDS011;17142;47.990;7.846;2023-02-28T04:29:51;5.00;;;4.00;;
30335;SDS011;17142;47.990;7.846;2023-02-28T04:32:17;4.70;;;3.20;;
30335;SDS011;17142;47.990;7.846;2023-02-28T04:34:45;4.50;;;3.23;;
30335;SDS011;17142;47.990;7.846;2023-02-28T04:37:10;3.10;;;2.80;;
30335;SDS011;17142;47.990;7.846;2023-02-28T04:39:38;6.27;;;3.97;;
30335;SDS011;17142;47.990;7.846;2023-02-28T04:42:04;3.90;;;3.50;;
30335;SDS011;17142;47.990;7.846;2023-02-28T04:44:30;4.10;;;3.53;;
30335;SDS011;17142;47.990;7.846;2023-02-28T04:46:58;4.37;;;3.43;;
30335;SDS011;17142;47.990;7.846;2023-02-28T04:49:24;5.87;;;3.73;;
30335;SDS011;17142;47.990;7.846;2023-02-28T04:51:50;5.73;;;3.87;;
30335;SDS011;17142;47.990;7.846;2023-02-28T04:54:18;5.07;;;3.70;;
30335;SDS011;17142;47.990;7.846;2023-02-28T04:56:43;5.33;;;3.40;;
30335;SDS011;17142;47.990;7.846;2023-02-28T04:59:09;6.00;;;4.50;;
30335;SDS011;17142;47.990;7.846;2023-02-28T05:01:37;3.67;;;3.30;;
30335;SDS011;17142;47.990;7.846;2023-02-28T05:04:03;5.50;;;3.83;;
30335;SDS011;17142;47.990;7.846;2023-02-28T05:06:30;5.67;;;3.97;;
30335;SDS011;17142;47.990;7.846;2023-02-28T05:08:56;4.90;;;4.30;;
30335;SDS011;17142;47.990;7.846;2023-02-28T05:11:27;5.73;;;3.50;;
30335;SDS011;17142;47.990;7.846;2023-02-28T05:14:00;5.13;;;4.37;;
30335;SDS011;17142;47.990;7.846;2023-02-28T05:16:26;4.07;;;3.20;;
30335;SDS011;17142;47.990;7.846;2023-02-28T05:18:52;5.27;;;3.67;;
30335;SDS011;17142;47.990;7.846;2023-02-28T05:23:58;4.00;;;3.60;;
30335;SDS011;17142;47.990;7.846;2023-02-28T05:26:26;3.73;;;3.33;;
30335;SDS011;17142;47.990;7.846;2023-02-28T05:28:55;5.53;;;4.80;;
30335;SDS011;17142;47.990;7.846;2023-02-28T05:31:20;4.87;;;4.40;;
30335;SDS011;17142;47.990;7.846;2023-02-28T05:33:46;4.20;;;3.80;;
30335;SDS011;17142;47.990;7.846;2023-02-28T05:36:12;4.27;;;3.87;;
30335;SDS011;17142;47.990;7.846;2023-02-28T05:38:40;6.93;;;3.90;;
30335;SDS011;17142;47.990;7.846;2023-02-28T05:41:07;3.73;;;3.40;;
30335;SDS011;17142;47.990;7.846;2023-02-28T05:43:33;5.63;;;4.40;;
30335;SDS011;17142;47.990;7.846;2023-02-28T05:46:05;6.80;;;4.40;;
30335;SDS011;17142;47.990;7.846;2023-02-28T05:48:32;5.37;;;4.27;;
30335;SDS011;17142;47.990;7.846;2023-02-28T05:51:01;5.80;;;4.30;;
30335;SDS011;17142;47.990;7.846;2023-02-28T05:53:28;5.57;;;4.40;;
30335;SDS011;17142;47.990;7.846;2023-02-28T05:55:54;6.23;;;4.50;;
30335;SDS011;17142;47.990;7.846;2023-02-28T05:58:20;5.90;;;5.30;;
30335;SDS011;17142;47.990;7.846;2023-02-28T06:00:50;4.50;;;4.10;;
30335;SDS011;17142;47.990;7.846;2023-02-28T06:03:19;5.00;;;4.20;;
30335;SDS011;17142;47.990;7.846;2023-02-28T06:05:44;4.63;;;4.20;;
30335;SDS011;17142;47.990;7.846;2023-02-28T06:08:10;7.57;;;5.10;;
30335;SDS011;17142;47.990;7.846;2023-02-28T06:10:35;5.23;;;4.43;;
30335;SDS011;17142;47.990;7.846;2023-02-28T06:13:05;5.50;;;4.90;;
30335;SDS011;17142;47.990;7.846;2023-02-28T06:15:33;6.05;;;4.20;;
30335;SDS011;17142;47.990;7.846;2023-02-28T06:18:01;5.38;;;4.45;;
30335;SDS011;17142;47.990;7.846;2023-02-28T06:20:27;6.40;;;4.90;;
30335;SDS011;17142;47.990;7.846;2023-02-28T06:22:56;7.37;;;4.83;;
30335;SDS011;17142;47.990;7.846;2023-02-28T06:25:26;5.97;;;4.50;;
30335;SDS011;17142;47.990;7.846;2023-02-28T06:27:55;6.77;;;5.30;;
30335;SDS011;17142;47.990;7.846;2023-02-28T06:30:23;7.15;;;6.20;;
30335;SDS011;17142;47.990;7.846;2023-02-28T06:32:50;5.33;;;4.80;;
30335;SDS011;17142;47.990;7.846;2023-02-28T06:35:17;4.10;;;3.70;;
30335;SDS011;17142;47.990;7.846;2023-02-28T06:37:45;5.10;;;4.60;;
30335;SDS011;17142;47.990;7.846;2023-02-28T06:40:12;5.30;;;4.43;;
30335;SDS011;17142;47.990;7.846;2023-02-28T06:42:38;5.20;;;4.60;;
30335;SDS011;17142;47.990;7.846;2023-02-28T06:45:03;12.13;;;4.93;;
30335;SDS011;17142;47.990;7.846;2023-02-28T06:47:34;5.10;;;4.60;;
30335;SDS011;17142;47.990;7.846;2023-02-28T06:50:00;6.30;;;4.37;;
30335;SDS011;17142;47.990;7.846;2023-02-28T06:52:26;5.67;;;5.17;;
30335;SDS011;17142;47.990;7.846;2023-02-28T06:54:52;7.37;;;5.83;;
30335;SDS011;17142;47.990;7.846;2023-02-28T06:57:25;4.70;;;3.97;;
30335;SDS011;17142;47.990;7.846;2023-02-28T07:00:03;8.03;;;4.77;;
30335;SDS011;17142;47.990;7.846;2023-02-28T07:02:32;5.27;;;4.37;;
30335;SDS011;17142;47.990;7.846;2023-02-28T07:04:58;5.40;;;4.90;;
30335;SDS011;17142;47.990;7.846;2023-02-28T07:07:24;5.23;;;4.73;;
30335;SDS011;17142;47.990;7.846;2023-02-28T07:09:52;4.63;;;4.23;;
30335;SDS011;17142;47.990;7.846;2023-02-28T07:12:18;5.50;;;4.40;;
30335;SDS011;17142;47.990;7.846;2023-02-28T07:14:43;7.23;;;6.10;;
30335;SDS011;17142;47.990;7.846;2023-02-28T07:17:09;6.87;;;5.87;;
30335;SDS011;17142;47.990;7.846;2023-02-28T07:19:39;8.57;;;5.70;;
30335;SDS011;17142;47.990;7.846;2023-02-28T07:22:05;8.30;;;6.13;;
30335;SDS011;17142;47.990;7.846;2023-02-28T07:24:31;8.30;;;6.47;;
30335;SDS011;17142;47.990;7.846;2023-02-28T07:26:57;4.50;;;4.10;;
30335;SDS011;17142;47.990;7.846;2023-02-28T07:29:24;8.30;;;5.40;;
30335;SDS011;17142;47.990;7.846;2023-02-28T07:31:50;5.43;;;4.50;;
30335;SDS011;17142;47.990;7.846;2023-02-28T07:34:18;9.07;;;6.07;;
30335;SDS011;17142;47.990;7.846;2023-02-28T07:36:44;6.13;;;5.50;;
30335;SDS011;17142;47.990;7.846;2023-02-28T07:39:10;4.87;;;4.47;;
30335;SDS011;17142;47.990;7.846;2023-02-28T07:41:35;5.83;;;4.77;;
30335;SDS011;17142;47.990;7.846;2023-02-28T07:44:08;6.17;;;4.63;;
30335;SDS011;17142;47.990;7.846;2023-02-28T07:46:36;4.53;;;3.73;;
30335;SDS011;17142;47.990;7.846;2023-02-28T07:49:05;7.83;;;4.93;;
30335;SDS011;17142;47.990;7.846;2023-02-28T07:51:33;5.83;;;5.30;;
30335;SDS011;17142;47.990;7.846;2023-02-28T07:53:58;7.03;;;5.40;;
30335;SDS011;17142;47.990;7.846;2023-02-28T07:56:24;7.70;;;4.73;;
30335;SDS011;17142;47.990;7.846;2023-02-28T07:58:50;8.13;;;5.70;;
30335;SDS011;17142;47.990;7.846;2023-02-28T08:01:15;8.47;;;6.13;;
30335;SDS011;17142;47.990;7.846;2023-02-28T08:03:42;9.60;;;5.20;;
30335;SDS011;17142;47.990;7.846;2023-02-28T08:06:14;5.33;;;4.80;;
30335;SDS011;17142;47.990;7.846;2023-02-28T08:08:45;5.30;;;4.40;;
30335;SDS011;17142;47.990;7.846;2023-02-28T08:11:14;6.47;;;5.10;;
30335;SDS011;17142;47.990;7.846;2023-02-28T08:13:42;7.80;;;5.60;;
30335;SDS011;17142;47.990;7.846;2023-02-28T08:16:09;6.00;;;4.97;;
30335;SDS011;17142;47.990;7.846;2023-02-28T08:18:39;5.40;;;4.90;;
30335;SDS011;17142;47.990;7.846;2023-02-28T08:21:10;6.90;;;5.50;;
30335;SDS011;17142;47.990;7.846;2023-02-28T08:23:36;5.77;;;4.80;;
30335;SDS011;17142;47.990;7.846;2023-02-28T08:26:02;8.17;;;4.87;;
30335;SDS011;17142;47.990;7.846;2023-02-28T08:28:28;6.30;;;5.27;;
30335;SDS011;17142;47.990;7.846;2023-02-28T08:30:54;5.53;;;5.03;;
30335;SDS011;17142;47.990;7.846;2023-02-28T08:33:20;10.20;;;5.30;;
30335;SDS011;17142;47.990;7.846;2023-02-28T08:35:48;6.00;;;4.87;;
30335;SDS011;17142;47.990;7.846;2023-02-28T08:38:16;7.07;;;5.10;;
30335;SDS011;17142;47.990;7.846;2023-02-28T08:40:42;5.43;;;4.93;;
30335;SDS011;17142;47.990;7.846;2023-02-28T08:43:08;5.93;;;4.83;;
30335;SDS011;17142;47.990;7.846;2023-02-28T08:45:36;5.83;;;4.90;;
30335;SDS011;17142;47.990;7.846;2023-02-28T08:48:01;4.67;;;4.27;;
30335;SDS011;17142;47.990;7.846;2023-02-28T08:50:27;9.63;;;5.27;;
30335;SDS011;17142;47.990;7.846;2023-02-28T08:52:53;6.63;;;5.23;;
30335;SDS011;17142;47.990;7.846;2023-02-28T08:55:18;6.43;;;5.73;;
30335;SDS011;17142;47.990;7.846;2023-02-28T08:57:44;6.17;;;4.77;;
30335;SDS011;17142;47.990;7.846;2023-02-28T09:00:10;6.10;;;4.70;;
30335;SDS011;17142;47.990;7.846;2023-02-28T09:02:41;7.70;;;5.70;;
30335;SDS011;17142;47.990;7.846;2023-02-28T09:05:07;8.00;;;5.10;;
30335;SDS011;17142;47.990;7.846;2023-02-28T09:07:33;8.10;;;6.07;;
30335;SDS011;17142;47.990;7.846;2023-02-28T09:10:04;8.47;;;5.70;;
30335;SDS011;17142;47.990;7.846;2023-02-28T09:12:31;5.70;;;5.10;;
30335;SDS011;17142;47.990;7.846;2023-02-28T09:14:58;6.87;;;5.13;;
30335;SDS011;17142;47.990;7.846;2023-02-28T09:17:26;6.90;;;6.10;;
30335;SDS011;17142;47.990;7.846;2023-02-28T09:19:52;8.33;;;6.33;;
30335;SDS011;17142;47.990;7.846;2023-02-28T09:22:17;7.67;;;5.53;;
30335;SDS011;17142;47.990;7.846;2023-02-28T09:24:43;8.20;;;5.93;;
30335;SDS011;17142;47.990;7.846;2023-02-28T09:27:09;8.33;;;6.20;;
30335;SDS011;17142;47.990;7.846;2023-02-28T09:29:35;6.77;;;5.17;;
30335;SDS011;17142;47.990;7.846;2023-02-28T09:32:01;8.23;;;5.33;;
30335;SDS011;17142;47.990;7.846;2023-02-28T09:34:32;8.37;;;6.40;;
30335;SDS011;17142;47.990;7.846;2023-02-28T09:36:58;9.47;;;5.10;;
30335;SDS011;17142;47.990;7.846;2023-02-28T09:39:26;8.20;;;5.70;;
30335;SDS011;17142;47.990;7.846;2023-02-28T09:41:52;7.83;;;6.10;;
30335;SDS011;17142;47.990;7.846;2023-02-28T09:44:24;7.50;;;6.10;;
30335;SDS011;17142;47.990;7.846;2023-02-28T09:47:49;6.17;;;5.23;;
30335;SDS011;17142;47.990;7.846;2023-02-28T09:49:59;8.67;;;6.50;;
30335;SDS011;17142;47.990;7.846;2023-02-28T09:52:36;7.00;;;5.53;;
30335;SDS011;17142;47.990;7.846;2023-02-28T09:55:18;5.90;;;5.17;;
30335;SDS011;17142;47.990;7.846;2023-02-28T09:57:53;7.50;;;5.70;;
30335;SDS011;17142;47.990;7.846;2023-02-28T10:09:04;7.50;;;6.00;;
30335;SDS011;17142;47.990;7.846;2023-02-28T10:11:35;6.80;;;5.80;;
30335;SDS011;17142;47.990;7.846;2023-02-28T10:14:06;8.77;;;5.80;;
30335;SDS011;17142;47.990;7.846;2023-02-28T10:16:46;7.80;;;5.77;;
30335;SDS011;17142;47.990;7.846;2023-02-28T10:20:05;8.60;;;6.10;;
30335;SDS011;17142;47.990;7.846;2023-02-28T10:22:40;9.20;;;6.43;;
30335;SDS011;17142;47.990;7.846;2023-02-28T10:25:19;7.03;;;6.30;;
30335;SDS011;17142;47.990;7.846;2023-02-28T10:27:46;8.87;;;6.93;;
30335;SDS011;17142;47.990;7.846;2023-02-28T10:30:12;6.90;;;5.80;;
30335;SDS011;17142;47.990;7.846;2023-02-28T10:32:43;8.67;;;6.57;;
30335;SDS011;17142;47.990;7.846;2023-02-28T10:35:22;7.37;;;5.63;;
30335;SDS011;17142;47.990;7.846;2023-02-28T10:37:51;10.07;;;6.20;;
30335;SDS011;17142;47.990;7.846;2023-02-28T10:45:21;7.40;;;5.77;;
30335;SDS011;17142;47.990;7.846;2023-02-28T10:53:05;7.23;;;5.97;;
30335;SDS011;17142;47.990;7.846;2023-02-28T10:55:39;6.83;;;5.77;;
30335;SDS011;17142;47.990;7.846;2023-02-28T10:58:18;8.90;;;5.70;;
30335;SDS011;17142;47.990;7.846;2023-02-28T11:00:47;7.60;;;6.20;;
30335;SDS011;17142;47.990;7.846;2023-02-28T11:06:17;7.67;;;5.33;;
30335;SDS011;17142;47.990;7.846;2023-02-28T11:08:51;7.03;;;5.97;;
30335;SDS011;17142;47.990;7.846;2023-02-28T11:11:21;6.97;;;5.30;;
30335;SDS011;17142;47.990;7.846;2023-02-28T11:13:51;7.90;;;6.20;;
30335;SDS011;17142;47.990;7.846;2023-02-28T11:16:19;9.07;;;6.50;;
30335;SDS011;17142;47.990;7.846;2023-02-28T11:21:22;8.37;;;5.70;;
30335;SDS011;17142;47.990;7.846;2023-02-28T11:23:54;7.47;;;6.77;;
30335;SDS011;17142;47.990;7.846;2023-02-28T11:26:39;7.97;;;6.17;;
30335;SDS011;17142;47.990;7.846;2023-02-28T11:29:20;6.20;;;5.60;;
30335;SDS011;17142;47.990;7.846;2023-02-28T11:32:04;7.67;;;6.03;;
30335;SDS011;17142;47.990;7.846;2023-02-28T11:34:31;6.20;;;5.27;;
30335;SDS011;17142;47.990;7.846;2023-02-28T11:36:58;7.30;;;5.97;;
30335;SDS011;17142;47.990;7.846;2023-02-28T11:39:26;6.53;;;5.90;;
30335;SDS011;17142;47.990;7.846;2023-02-28T11:44:43;8.40;;;6.40;;
30335;SDS011;17142;47.990;7.846;2023-02-28T11:53:33;7.73;;;6.90;;
30335;SDS011;17142;47.990;7.846;2023-02-28T11:56:05;8.83;;;6.90;;
30335;SDS011;17142;47.990;7.846;2023-02-28T12:04:21;8.97;;;7.07;;
30335;SDS011;17142;47.990;7.846;2023-02-28T12:21:09;9.30;;;7.77;;
30335;SDS011;17142;47.990;7.846;2023-02-28T12:26:43;8.43;;;6.03;;
30335;SDS011;17142;47.990;7.846;2023-02-28T12:40:33;8.60;;;6.33;;
30335;SDS011;17142;47.990;7.846;2023-02-28T12:43:07;8.33;;;7.10;;
30335;SDS011;17142;47.990;7.846;2023-02-28T12:45:48;11.40;;;7.07;;
30335;SDS011;17142;47.990;7.846;2023-02-28T12:48:18;7.50;;;6.50;;
30335;SDS011;17142;47.990;7.846;2023-02-28T12:51:01;8.93;;;7.47;;
30335;SDS011;17142;47.990;7.846;2023-02-28T12:53:49;8.53;;;6.70;;
30335;SDS011;17142;47.990;7.846;2023-02-28T12:59:10;8.03;;;7.10;;
30335;SDS011;17142;47.990;7.846;2023-02-28T13:01:59;10.00;;;7.00;;
30335;SDS011;17142;47.990;7.846;2023-02-28T13:10:00;8.73;;;6.60;;
30335;SDS011;17142;47.990;7.846;2023-02-28T13:12:29;8.30;;;6.73;;
30335;SDS011;17142;47.990;7.846;2023-02-28T13:17:48;10.73;;;8.87;;
30335;SDS011;17142;47.990;7.846;2023-02-28T13:20:23;10.40;;;7.30;;
30335;SDS011;17142;47.990;7.846;2023-02-28T13:22:53;10.47;;;6.80;;
30335;SDS011;17142;47.990;7.846;2023-02-28T13:27:51;10.60;;;6.90;;
30335;SDS011;17142;47.990;7.846;2023-02-28T13:38:43;8.37;;;6.20;;
30335;SDS011;17142;47.990;7.846;2023-02-28T13:46:31;8.20;;;6.83;;
30335;SDS011;17142;47.990;7.846;2023-02-28T13:57:27;6.97;;;6.23;;
30335;SDS011;17142;47.990;7.846;2023-02-28T14:06:08;8.67;;;7.07;;
30335;SDS011;17142;47.990;7.846;2023-02-28T14:09:06;6.87;;;6.17;;
30335;SDS011;17142;47.990;7.846;2023-02-28T14:11:48;7.20;;;6.30;;
30335;SDS011;17142;47.990;7.846;2023-02-28T14:17:03;8.53;;;6.50;;
30335;SDS011;17142;47.990;7.846;2023-02-28T14:19:40;7.57;;;6.80;;
30335;SDS011;17142;47.990;7.846;2023-02-28T14:31:13;8.00;;;6.83;;
30335;SDS011;17142;47.990;7.846;2023-02-28T14:33:57;11.30;;;7.80;;
30335;SDS011;17142;47.990;7.846;2023-02-28T14:36:42;9.37;;;7.73;;
30335;SDS011;17142;47.990;7.846;2023-02-28T14:39:13;8.50;;;7.67;;
30335;SDS011;17142;47.990;7.846;2023-02-28T14:41:40;10.87;;;8.80;;
30335;SDS011;17142;47.990;7.846;2023-02-28T14:44:14;9.20;;;7.77;;
30335;SDS011;17142;47.990;7.846;2023-02-28T14:46:49;9.23;;;7.97;;
30335;SDS011;17142;47.990;7.846;2023-02-28T14:49:28;12.83;;;7.87;;
30335;SDS011;17142;47.990;7.846;2023-02-28T14:54:37;10.83;;;8.37;;
30335;SDS011;17142;47.990;7.846;2023-02-28T14:57:05;8.70;;;7.23;;
30335;SDS011;17142;47.990;7.846;2023-02-28T14:59:45;11.07;;;7.60;;
30335;SDS011;17142;47.990;7.846;2023-02-28T15:02:20;8.63;;;6.80;;
30335;SDS011;17142;47.990;7.846;2023-02-28T15:04:54;8.60;;;7.40;;
30335;SDS011;17142;47.990;7.846;2023-02-28T15:07:28;7.83;;;7.03;;
30335;SDS011;17142;47.990;7.846;2023-02-28T15:10:06;10.20;;;7.73;;
30335;SDS011;17142;47.990;7.846;2023-02-28T15:12:34;9.80;;;8.77;;
30335;SDS011;17142;47.990;7.846;2023-02-28T15:15:03;11.80;;;8.83;;
30335;SDS011;17142;47.990;7.846;2023-02-28T15:17:29;9.83;;;7.07;;
30335;SDS011;17142;47.990;7.846;2023-02-28T15:19:57;10.90;;;8.70;;
30335;SDS011;17142;47.990;7.846;2023-02-28T15:22:27;13.73;;;8.60;;
30335;SDS011;17142;47.990;7.846;2023-02-28T15:25:02;8.20;;;7.40;;
30335;SDS011;17142;47.990;7.846;2023-02-28T15:27:33;10.60;;;8.23;;
30335;SDS011;17142;47.990;7.846;2023-02-28T15:30:04;12.57;;;8.30;;
30335;SDS011;17142;47.990;7.846;2023-02-28T15:32:36;10.27;;;7.73;;
30335;SDS011;17142;47.990;7.846;2023-02-28T15:40:42;9.83;;;7.17;;
30335;SDS011;17142;47.990;7.846;2023-02-28T15:43:31;10.63;;;8.17;;
30335;SDS011;17142;47.990;7.846;2023-02-28T15:53:36;12.53;;;8.83;;
30335;SDS011;17142;47.990;7.846;2023-02-28T15:56:28;11.40;;;9.40;;
30335;SDS011;17142;47.990;7.846;2023-02-28T15:58:59;10.20;;;7.17;;
30335;SDS011;17142;47.990;7.846;2023-02-28T16:01:36;8.77;;;7.60;;
30335;SDS011;17142;47.990;7.846;2023-02-28T16:04:11;13.20;;;9.30;;
30335;SDS011;17142;47.990;7.846;2023-02-28T16:06:45;12.87;;;9.13;;
30335;SDS011;17142;47.990;7.846;2023-02-28T16:09:16;10.77;;;7.87;;
30335;SDS011;17142;47.990;7.846;2023-02-28T16:11:49;10.87;;;8.30;;
30335;SDS011;17142;47.990;7.846;2023-02-28T16:14:17;11.40;;;9.17;;
30335;SDS011;17142;47.990;7.846;2023-02-28T16:16:48;10.50;;;8.50;;
30335;SDS011;17142;47.990;7.846;2023-02-28T16:19:16;10.13;;;7.80;;
30335;SDS011;17142;47.990;7.846;2023-02-28T16:21:43;11.63;;;9.50;;
30335;SDS011;17142;47.990;7.846;2023-02-28T16:24:08;8.87;;;7.67;;
30335;SDS011;17142;47.990;7.846;2023-02-28T16:26:34;11.03;;;8.23;;
30335;SDS011;17142;47.990;7.846;2023-02-28T16:29:02;12.70;;;7.83;;
30335;SDS011;17142;47.990;7.846;2023-02-28T16:31:32;11.53;;;7.90;;
30335;SDS011;17142;47.990;7.846;2023-02-28T16:34:01;10.73;;;8.00;;
30335;SDS011;17142;47.990;7.846;2023-02-28T16:36:29;9.90;;;7.43;;
30335;SDS011;17142;47.990;7.846;2023-02-28T16:38:55;11.33;;;8.00;;
30335;SDS011;17142;47.990;7.846;2023-02-28T16:41:24;9.70;;;7.47;;
30335;SDS011;17142;47.990;7.846;2023-02-28T16:43:52;8.97;;;8.07;;
30335;SDS011;17142;47.990;7.846;2023-02-28T16:46:23;10.40;;;7.87;;
30335;SDS011;17142;47.990;7.846;2023-02-28T16:48:52;13.30;;;8.27;;
30335;SDS011;17142;47.990;7.846;2023-02-28T16:51:18;12.73;;;8.43;;
30335;SDS011;17142;47.990;7.846;2023-02-28T16:53:44;11.77;;;7.53;;
30335;SDS011;17142;47.990;7.846;2023-02-28T16:56:13;12.13;;;8.50;;
30335;SDS011;17142;47.990;7.846;2023-02-28T16:58:43;8.93;;;7.30;;
30335;SDS011;17142;47.990;7.846;2023-02-28T17:01:09;10.87;;;7.87;;
30335;SDS011;17142;47.990;7.846;2023-02-28T17:03:34;8.63;;;7.77;;
30335;SDS011;17142;47.990;7.846;2023-02-28T17:06:01;9.87;;;8.20;;
30335;SDS011;17142;47.990;7.846;2023-02-28T17:08:28;13.27;;;9.53;;
30335;SDS011;17142;47.990;7.846;2023-02-28T17:10:56;9.67;;;6.80;;
30335;SDS011;17142;47.990;7.846;2023-02-28T17:13:22;12.23;;;8.30;;
30335;SDS011;17142;47.990;7.846;2023-02-28T17:15:51;13.50;;;8.53;;
30335;SDS011;17142;47.990;7.846;2023-02-28T17:18:19;14.00;;;10.03;;
30335;SDS011;17142;47.990;7.846;2023-02-28T17:20:48;15.80;;;11.50;;
30335;SDS011;17142;47.990;7.846;2023-02-28T17:23:14;12.60;;;9.13;;
30335;SDS011;17142;47.990;7.846;2023-02-28T17:25:40;17.70;;;10.80;;
30335;SDS011;17142;47.990;7.846;2023-02-28T17:28:06;14.30;;;9.87;;
30335;SDS011;17142;47.990;7.846;2023-02-28T17:30:34;11.77;;;8.57;;
30335;SDS011;17142;47.990;7.846;2023-02-28T17:33:02;12.20;;;9.70;;
30335;SDS011;17142;47.990;7.846;2023-02-28T17:35:27;12.23;;;9.43;;
30335;SDS011;17142;47.990;7.846;2023-02-28T17:37:55;12.30;;;9.17;;
30335;SDS011;17142;47.990;7.846;2023-02-28T17:40:22;10.93;;;8.47;;
30335;SDS011;17142;47.990;7.846;2023-02-28T17:42:50;10.30;;;8.50;;
30335;SDS011;17142;47.990;7.846;2023-02-28T17:45:20;12.33;;;8.50;;
30335;SDS011;17142;47.990;7.846;2023-02-28T17:47:46;13.30;;;8.57;;
30335;SDS011;17142;47.990;7.846;2023-02-28T17:50:19;11.13;;;8.60;;
30335;SDS011;17142;47.990;7.846;2023-02-28T17:52:46;10.70;;;7.57;;
30335;SDS011;17142;47.990;7.846;2023-02-28T17:55:12;12.57;;;8.53;;
30335;SDS011;17142;47.990;7.846;2023-02-28T17:57:40;13.47;;;8.10;;